Time;durP1;ratioP1;P1;durP2;ratioP2;P2;SDS_P1;SDS_P2;PMS_P1;PMS_P2;Temp;Humidity;BMP_temperature;BMP_pressure;BME280_temperature;BME280_humidity;BME280_pressure;Samples;Min_cycle;Max_cycle;Signal;HPM_P1;HPM_P2
2022/06/06 00:02:25;;;;;;;;;4.00;4.00;;;;;19.36;68.17;101424.84;5016093;28;45733;-84
2022/06/06 00:04:50;;;;;;;;;5.00;3.00;;;;;19.50;68.85;101453.63;5017438;28;45534;-85
2022/06/06 00:07:16;;;;;;;;;5.33;3.67;;;;;19.48;68.57;101459.16;5015802;28;46198;-85
2022/06/06 00:09:41;;;;;;;;;3.67;3.67;;;;;19.34;68.11;101437.63;5023012;28;45474;-85
2022/06/06 00:12:07;;;;;;;;;3.33;3.33;;;;;19.31;68.34;101432.41;5016914;28;45439;-84
2022/06/06 00:14:33;;;;;;;;;3.00;2.00;;;;;19.14;67.97;101418.22;5011249;28;45520;-85
2022/06/06 00:16:59;;;;;;;;;4.00;4.00;;;;;19.27;68.00;101441.69;5016950;28;45970;-85
2022/06/06 00:19:24;;;;;;;;;3.00;2.00;;;;;19.30;68.27;101461.28;5016430;28;45559;-85
2022/06/06 00:21:51;;;;;;;;;3.00;3.00;;;;;19.08;68.35;101424.09;5016509;28;45377;-85
2022/06/06 00:24:17;;;;;;;;;3.00;3.00;;;;;19.24;68.27;101453.59;5012077;28;45681;-84
2022/06/06 00:26:43;;;;;;;;;3.33;3.33;;;;;19.16;67.94;101442.47;5015639;28;46136;-85
2022/06/06 00:29:12;;;;;;;;;7.67;5.00;;;;;19.20;67.76;101452.09;5011946;28;45440;-85
2022/06/06 00:37:09;;;;;;;;;4.00;4.00;;;;;19.08;68.26;101443.00;5015827;28;45481;-85
2022/06/06 00:39:35;;;;;;;;;4.33;3.00;;;;;19.12;68.64;101447.19;5017066;28;45461;-83
2022/06/06 00:42:01;;;;;;;;;3.00;2.00;;;;;19.10;68.59;101438.31;5014850;28;45645;-85
2022/06/06 00:44:32;;;;;;;;;5.33;4.00;;;;;19.08;69.33;101439.41;5014344;28;47880;-85
2022/06/06 00:47:00;;;;;;;;;3.00;3.00;;;;;19.08;69.17;101434.00;5016484;28;45440;-83
2022/06/06 00:49:33;;;;;;;;;3.00;3.00;;;;;19.08;68.93;101434.00;5015621;28;45448;-85
2022/06/06 00:51:59;;;;;;;;;5.00;3.00;;;;;19.06;69.06;101435.94;5016008;28;45490;-85
2022/06/06 00:54:24;;;;;;;;;4.67;2.67;;;;;18.85;68.79;101398.63;5014936;28;45458;-84
2022/06/06 00:56:57;;;;;;;;;4.00;4.00;;;;;19.06;69.00;101428.72;5014645;28;46292;-85
2022/06/06 00:59:27;;;;;;;;;5.00;3.67;;;;;19.07;69.06;101418.78;5014598;28;45549;-85
2022/06/06 01:01:52;;;;;;;;;6.33;6.33;;;;;19.06;69.48;101420.63;5015933;28;45541;-85
2022/06/06 01:04:21;;;;;;;;;4.33;4.00;;;;;18.85;69.12;101393.22;5015991;28;45562;-84
2022/06/06 01:06:47;;;;;;;;;4.67;4.67;;;;;19.05;69.53;101421.56;5014979;28;46135;-84
2022/06/06 01:09:14;;;;;;;;;5.00;4.00;;;;;18.97;69.30;101408.59;5018005;28;45442;-84
2022/06/06 01:11:45;;;;;;;;;5.33;4.00;;;;;18.89;69.22;101388.47;5010572;28;45604;-84
2022/06/06 01:14:14;;;;;;;;;3.00;2.33;;;;;19.05;69.35;101408.06;5009934;28;45305;-85
2022/06/06 01:16:46;;;;;;;;;5.00;5.00;;;;;19.00;69.86;101403.97;5013987;28;46935;-85
2022/06/06 01:19:39;;;;;;;;;4.33;4.33;;;;;19.06;69.50;101417.03;5015036;28;45614;-84
2022/06/06 01:22:26;;;;;;;;;3.33;3.00;;;;;19.05;69.17;101418.88;5014430;28;45324;-85
2022/06/06 01:25:39;;;;;;;;;7.00;6.00;;;;;19.03;69.50;101412.69;5015483;28;45604;-84
2022/06/06 01:28:33;;;;;;;;;5.00;5.00;;;;;18.88;69.78;101397.56;5006004;28;46413;-85
2022/06/06 01:31:05;;;;;;;;;4.50;4.50;;;;;19.02;69.87;101405.56;5014047;28;45460;-84
2022/06/06 01:34:00;;;;;;;;;5.00;4.00;;;;;19.00;69.84;101410.22;5015892;28;45585;-85
2022/06/06 01:36:29;;;;;;;;;6.00;6.00;;;;;19.03;69.70;101409.13;5014478;28;45407;-84
2022/06/06 01:39:01;;;;;;;;;6.00;5.00;;;;;19.01;69.42;101414.66;5011695;28;46061;-85
2022/06/06 01:41:38;;;;;;;;;3.00;2.33;;;;;18.87;69.00;101396.69;5010284;28;45406;-85
2022/06/06 01:44:39;;;;;;;;;4.00;4.00;;;;;19.02;69.21;101423.63;5014960;28;45440;-85
2022/06/06 01:47:09;;;;;;;;;5.00;4.00;;;;;18.93;69.65;101406.22;5003919;28;45546;-85
2022/06/06 01:49:36;;;;;;;;;6.00;4.67;;;;;18.95;69.79;101402.44;5015031;28;45424;-84
2022/06/06 01:52:08;;;;;;;;;6.67;5.67;;;;;18.85;69.97;101386.97;5014795;28;45519;-85
2022/06/06 01:54:33;;;;;;;;;4.67;4.67;;;;;18.89;69.87;101396.56;5015206;28;45457;-85
2022/06/06 01:57:01;;;;;;;;;4.67;4.67;;;;;18.84;69.99;101391.47;5015050;28;45415;-85
2022/06/06 01:59:27;;;;;;;;;4.67;3.67;;;;;18.92;69.38;101407.19;5012163;28;46475;-85
2022/06/06 02:01:52;;;;;;;;;6.33;5.00;;;;;18.78;69.39;101386.53;5018801;28;45485;-85
2022/06/06 02:04:19;;;;;;;;;6.67;5.67;;;;;18.82;69.55;101392.56;5010359;28;45434;-85
2022/06/06 02:06:44;;;;;;;;;4.00;4.00;;;;;18.96;69.15;101419.50;5015695;28;45438;-85
2022/06/06 02:09:10;;;;;;;;;4.00;4.00;;;;;18.97;69.52;101411.28;5011641;28;45403;-85
2022/06/06 02:11:35;;;;;;;;;3.67;3.67;;;;;18.97;69.47;101405.03;5014835;28;45562;-85
2022/06/06 02:14:00;;;;;;;;;4.00;4.00;;;;;18.83;69.19;101387.06;5012727;28;45399;-86
2022/06/06 02:16:26;;;;;;;;;5.00;4.00;;;;;18.88;69.22;101394.84;5011030;28;45562;-85
2022/06/06 02:18:51;;;;;;;;;5.00;5.00;;;;;18.90;69.06;101401.03;5024018;28;55617;-85
2022/06/06 02:21:16;;;;;;;;;7.00;6.00;;;;;18.88;68.77;101398.41;5017296;28;45436;-85
2022/06/06 02:23:43;;;;;;;;;4.00;4.00;;;;;18.60;68.92;101355.31;5018478;28;45545;-86
2022/06/06 02:26:09;;;;;;;;;6.67;5.00;;;;;18.73;68.84;101388.59;5018846;28;45335;-86
2022/06/06 02:28:38;;;;;;;;;8.00;6.67;;;;;18.80;69.12;101410.69;5018072;28;45384;-85
2022/06/06 02:31:04;;;;;;;;;5.00;5.00;;;;;18.78;68.80;101413.53;5018286;28;45595;-87
2022/06/06 02:33:29;;;;;;;;;7.00;6.00;;;;;18.78;68.46;101408.13;5018738;28;45488;-85
2022/06/06 02:35:54;;;;;;;;;7.00;7.00;;;;;18.72;68.59;101395.00;5018094;28;45510;-85
2022/06/06 02:38:20;;;;;;;;;8.67;8.67;;;;;18.66;68.83;101387.28;5018049;28;47825;-85
2022/06/06 02:40:45;;;;;;;;;8.67;8.33;;;;;18.55;69.00;101371.84;5018072;28;45507;-85
2022/06/06 02:43:12;;;;;;;;;8.67;8.67;;;;;18.69;68.62;101401.47;5018185;28;45460;-85
2022/06/06 02:45:39;;;;;;;;;12.67;10.00;;;;;18.69;68.41;101408.72;5012832;28;45575;-81
2022/06/06 02:48:07;;;;;;;;;15.67;12.67;;;;;18.72;68.44;101416.59;5017137;28;47211;-85
2022/06/06 02:50:33;;;;;;;;;16.67;13.00;;;;;18.58;68.31;101395.91;5013996;28;45412;-86
2022/06/06 02:52:59;;;;;;;;;13.67;10.67;;;;;18.58;68.03;101404.00;5014538;28;45446;-85
2022/06/06 02:55:25;;;;;;;;;16.33;14.67;;;;;18.64;67.41;101402.75;5017936;28;45462;-86
2022/06/06 02:57:52;;;;;;;;;11.33;10.67;;;;;18.61;67.69;101397.53;5018102;28;46701;-85
2022/06/06 03:00:26;;;;;;;;;12.00;11.00;;;;;18.60;67.69;101403.94;5015023;28;46110;-85
2022/06/06 03:02:51;;;;;;;;;11.67;10.33;;;;;18.42;67.20;101369.06;5015273;28;45459;-85
2022/06/06 03:05:17;;;;;;;;;13.00;9.33;;;;;18.50;67.45;101380.25;5017849;28;45314;-85
2022/06/06 03:08:10;;;;;;;;;10.67;9.00;;;;;18.52;66.84;101391.81;5013902;28;46378;-84
2022/06/06 03:10:53;;;;;;;;;14.00;10.00;;;;;18.50;67.01;101393.75;5015686;28;45618;-85
2022/06/06 03:13:35;;;;;;;;;10.33;9.00;;;;;18.21;66.93;101352.47;5013049;28;45507;-85
2022/06/06 03:22:10;;;;;;;;;9.00;7.67;;;;;18.27;66.74;101378.22;5017777;28;45399;-85
2022/06/06 03:24:54;;;;;;;;;5.67;5.00;;;;;18.38;66.68;101402.66;5017619;28;45457;-85
2022/06/06 03:27:43;;;;;;;;;8.00;7.00;;;;;18.35;66.65;101402.84;5014351;28;45450;-85
2022/06/06 03:30:43;;;;;;;;;7.00;5.00;;;;;18.31;66.80;101413.00;5011910;28;46595;-85
2022/06/06 03:33:25;;;;;;;;;5.00;4.00;;;;;18.30;66.85;101410.38;5015897;28;45418;-85
2022/06/06 03:36:11;;;;;;;;;5.00;5.00;;;;;18.27;66.61;101411.44;5015158;28;45503;-85
2022/06/06 03:38:44;;;;;;;;;3.33;2.67;;;;;18.25;66.74;101413.38;5017394;28;45519;-85
2022/06/06 03:41:23;;;;;;;;;5.00;3.00;;;;;18.25;66.39;101413.38;5017154;28;45673;-85
2022/06/06 03:44:25;;;;;;;;;3.00;3.00;;;;;18.19;66.96;101407.50;5016687;28;45616;-84
2022/06/06 03:47:14;;;;;;;;;4.67;1.67;;;;;18.25;66.50;101416.06;5016824;28;45563;-84
2022/06/06 03:49:59;;;;;;;;;3.00;3.00;;;;;18.15;66.31;101406.84;5017479;28;45364;-84
2022/06/06 03:52:39;;;;;;;;;3.00;3.00;;;;;18.26;66.36;101423.22;5016241;28;46600;-84
2022/06/06 03:55:21;;;;;;;;;3.67;2.33;;;;;18.27;66.47;101415.97;5016510;28;45411;-85
2022/06/06 03:57:48;;;;;;;;;2.33;2.33;;;;;18.19;66.13;101405.69;5017071;28;45408;-85
2022/06/06 04:00:14;;;;;;;;;4.33;4.33;;;;;18.28;65.99;101426.66;5016728;28;45497;-85
2022/06/06 04:02:42;;;;;;;;;3.67;3.67;;;;;18.28;66.19;101420.41;5016527;28;46340;-85
2022/06/06 04:05:12;;;;;;;;;2.67;2.67;;;;;18.27;66.15;101418.69;5004582;28;45942;-84
2022/06/06 04:07:37;;;;;;;;;3.00;3.00;;;;;18.28;66.01;101425.78;5016728;28;45392;-85
2022/06/06 04:10:04;;;;;;;;;5.00;4.33;;;;;18.17;66.10;101402.22;5016380;28;45458;-85
2022/06/06 04:12:44;;;;;;;;;3.00;3.00;;;;;18.29;65.92;101431.09;5013036;28;46048;-84
2022/06/06 04:15:18;;;;;;;;;2.00;2.00;;;;;18.23;65.87;101415.31;5016256;28;45473;-85
2022/06/06 04:18:04;;;;;;;;;2.33;2.33;;;;;18.33;66.01;101429.06;5016779;28;45260;-85
2022/06/06 04:20:47;;;;;;;;;2.33;2.33;;;;;18.33;65.55;101434.47;5016322;28;45569;-84
2022/06/06 04:24:01;;;;;;;;;5.00;3.67;;;;;18.31;65.84;101434.56;5016170;28;47112;-85
2022/06/06 04:26:42;;;;;;;;;3.33;2.00;;;;;18.21;65.48;101413.69;4981043;28;45565;-84
2022/06/06 04:29:32;;;;;;;;;4.67;3.33;;;;;18.29;65.56;101439.19;4994471;28;45500;-85
2022/06/06 04:32:02;;;;;;;;;4.00;2.67;;;;;18.23;65.15;101431.50;4991490;28;45724;-84
2022/06/06 04:34:38;;;;;;;;;2.33;2.00;;;;;18.18;65.77;101419.28;4994016;28;46164;-84
2022/06/06 04:37:19;;;;;;;;;4.00;4.00;;;;;18.29;65.38;101433.81;4982230;28;45426;-85
2022/06/06 04:39:51;;;;;;;;;1.00;1.00;;;;;18.30;65.11;101427.44;4993622;28;45439;-85
2022/06/06 04:42:28;;;;;;;;;2.33;2.33;;;;;18.19;65.04;101408.41;4990349;28;45555;-85
2022/06/06 04:45:38;;;;;;;;;1.00;1.00;;;;;18.24;64.92;101422.44;4989214;28;46769;-85
2022/06/06 04:48:05;;;;;;;;;1.33;1.33;;;;;18.21;64.62;101416.38;4994339;28;45554;-85
2022/06/06 04:50:32;;;;;;;;;2.67;2.33;;;;;18.23;65.12;101428.78;4986721;28;45539;-85
2022/06/06 04:53:06;;;;;;;;;2.00;2.00;;;;;18.23;64.27;101425.25;4983041;28;45568;-85
2022/06/06 04:55:35;;;;;;;;;1.00;1.00;;;;;18.03;64.15;101391.47;4991982;28;46470;-85
2022/06/06 04:58:03;;;;;;;;;2.00;2.00;;;;;18.25;64.58;101429.56;4992326;28;45294;-85
2022/06/06 05:00:34;;;;;;;;;1.00;1.00;;;;;18.05;64.01;101401.19;4992281;28;45621;-84
2022/06/06 05:02:59;;;;;;;;;1.67;1.67;;;;;18.12;63.96;101413.31;5015156;28;45317;-85
2022/06/06 05:05:34;;;;;;;;;3.00;1.00;;;;;18.09;64.15;101413.50;5014966;28;52033;-85
2022/06/06 05:08:31;;;;;;;;;2.67;1.00;;;;;18.19;63.82;101439.88;5010823;28;45331;-84
2022/06/06 05:11:08;;;;;;;;;2.00;2.00;;;;;18.19;63.80;101442.59;4990338;28;45494;-84
2022/06/06 05:13:49;;;;;;;;;0.00;0.00;;;;;18.00;64.16;101411.41;4986030;28;45593;-85
2022/06/06 05:16:20;;;;;;;;;2.00;2.00;;;;;18.16;63.85;101437.41;4990078;28;46992;-85
2022/06/06 05:19:22;;;;;;;;;0.00;0.00;;;;;18.12;64.03;101440.31;4986374;28;45505;-85
2022/06/06 05:22:15;;;;;;;;;1.00;1.00;;;;;18.11;63.92;101443.09;4978428;28;45617;-85
2022/06/06 05:25:08;;;;;;;;;1.00;1.00;;;;;18.10;64.22;101436.84;4994445;28;45353;-85
2022/06/06 05:27:34;;;;;;;;;1.00;1.00;;;;;18.11;63.81;101443.09;4987749;28;46296;-85
2022/06/06 05:30:11;;;;;;;;;2.00;0.00;;;;;18.09;63.75;101439.63;4989373;28;45404;-84
2022/06/06 05:32:57;;;;;;;;;1.00;1.00;;;;;18.07;63.58;101442.41;4989741;28;45676;-85
2022/06/06 05:35:29;;;;;;;;;1.00;1.00;;;;;18.07;64.01;101442.41;4989065;28;45552;-84
2022/06/06 05:38:30;;;;;;;;;2.00;2.00;;;;;17.92;64.05;101421.81;4989507;28;45566;-84
2022/06/06 05:41:39;;;;;;;;;0.67;0.67;;;;;18.07;63.41;101441.53;4984254;28;45735;-84
2022/06/06 05:44:07;;;;;;;;;1.00;1.00;;;;;18.09;63.30;101437.78;4985938;28;45630;-85
2022/06/06 05:47:00;;;;;;;;;0.00;0.00;;;;;18.11;63.55;101443.09;4991066;28;45510;-85
2022/06/06 05:49:28;;;;;;;;;0.67;0.67;;;;;18.13;63.71;101438.47;5011470;28;46424;-85
2022/06/06 05:52:19;;;;;;;;;1.00;1.00;;;;;18.17;63.37;101447.22;5016485;28;45515;-85
2022/06/06 05:54:44;;;;;;;;;0.00;0.00;;;;;18.20;63.19;101441.63;5009026;28;45441;-85
2022/06/06 05:57:48;;;;;;;;;0.33;0.00;;;;;18.20;62.78;101442.50;5007293;28;45298;-85
2022/06/06 06:00:16;;;;;;;;;0.67;0.00;;;;;18.22;62.75;101443.28;5005192;28;46851;-85
2022/06/06 06:02:44;;;;;;;;;0.00;0.00;;;;;18.24;62.99;101451.25;5009499;28;45487;-83
2022/06/06 06:05:38;;;;;;;;;1.33;0.00;;;;;18.23;62.64;101454.91;5012278;28;45523;-85
2022/06/06 06:08:23;;;;;;;;;0.00;0.00;;;;;18.11;62.32;101426.91;5005702;28;45494;-84
2022/06/06 06:11:25;;;;;;;;;6.33;4.00;;;;;18.26;62.45;101461.00;5009248;28;46142;-84
2022/06/06 06:14:00;;;;;;;;;0.00;0.00;;;;;18.26;62.31;101460.09;5013803;28;45489;-85
2022/06/06 06:16:31;;;;;;;;;0.67;0.67;;;;;18.30;62.89;101469.75;5013672;28;45470;-84
2022/06/06 06:19:12;;;;;;;;;1.00;1.00;;;;;18.33;63.26;101461.44;5009135;28;45437;-86
2022/06/06 06:21:45;;;;;;;;;0.00;0.00;;;;;18.38;62.42;101469.25;5014073;28;47135;-86
2022/06/06 06:24:19;;;;;;;;;0.33;0.33;;;;;18.34;62.55;101466.75;5010097;28;45389;-85
2022/06/06 06:26:45;;;;;;;;;0.67;0.67;;;;;18.42;62.51;101468.94;5010762;28;45441;-86
2022/06/06 06:29:12;;;;;;;;;0.67;0.67;;;;;18.41;62.78;101467.22;5012448;28;45748;-86
2022/06/06 06:31:58;;;;;;;;;0.33;0.33;;;;;18.50;63.14;101477.44;5006949;28;47889;-88
2022/06/06 06:35:13;;;;;;;;;0.00;0.00;;;;;18.49;63.21;101467.56;5013534;28;45543;-87
2022/06/06 06:38:09;;;;;;;;;2.00;2.00;;;;;18.59;62.54;101484.06;4985252;28;45564;-84
2022/06/06 06:41:02;;;;;;;;;0.00;0.00;;;;;18.61;62.30;101482.09;4994367;28;45603;-87
2022/06/06 06:43:46;;;;;;;;;1.00;1.00;;;;;18.64;62.30;101476.53;4986290;28;47058;-90
2022/06/06 06:46:20;;;;;;;;;3.00;1.00;;;;;18.69;62.19;101482.47;4993958;28;45637;-89
2022/06/06 06:48:51;;;;;;;;;2.33;0.00;;;;;18.64;61.73;101468.41;4989420;28;45364;-90
2022/06/06 06:51:37;;;;;;;;;1.33;1.33;;;;;18.69;61.76;101478.91;4986098;28;45631;-89
2022/06/06 06:54:13;;;;;;;;;1.00;1.00;;;;;18.80;61.71;101489.03;4988857;28;47304;-89
2022/06/06 06:57:00;;;;;;;;;0.33;0.33;;;;;18.78;61.48;101475.66;4985287;28;45739;-89
2022/06/06 06:59:49;;;;;;;;;2.67;1.00;;;;;18.84;62.35;101480.63;4984674;28;45579;-89
2022/06/06 07:10:50;;;;;;;;;0.67;0.67;;;;;19.08;60.98;101488.03;4998494;28;45555;-90
2022/06/06 07:13:34;;;;;;;;;0.00;0.00;;;;;19.13;60.42;101478.66;5007753;28;45470;-90
2022/06/06 07:16:16;;;;;;;;;2.33;2.00;;;;;19.06;60.33;101460.25;5015481;28;46181;-90
2022/06/06 07:18:42;;;;;;;;;1.00;0.00;;;;;19.14;60.13;101466.88;5013875;28;45404;-90
2022/06/06 07:21:10;;;;;;;;;0.33;0.33;;;;;19.21;59.92;101464.63;5016359;28;45479;-81
2022/06/06 07:23:39;;;;;;;;;0.00;0.00;;;;;19.39;59.55;101487.69;5014911;28;45488;-89
2022/06/06 07:26:07;;;;;;;;;0.00;0.00;;;;;19.24;59.20;101456.28;5013322;28;46522;-93
2022/06/06 07:28:33;;;;;;;;;0.67;0.67;;;;;19.18;59.28;101435.97;5014972;28;45610;-91
2022/06/06 07:31:01;;;;;;;;;0.67;0.67;;;;;19.46;58.92;101482.72;5016476;28;45496;-93
2022/06/06 07:33:45;;;;;;;;;0.00;0.00;;;;;19.42;59.42;101481.19;5018141;28;45416;-93
2022/06/06 07:36:49;;;;;;;;;1.33;1.33;;;;;19.46;59.70;101473.75;5018278;28;46126;-94
2022/06/06 07:39:36;;;;;;;;;0.00;0.00;;;;;19.49;58.81;101481.66;5013632;28;45483;-93
2022/06/06 07:42:07;;;;;;;;;0.00;0.00;;;;;19.54;58.79;101479.47;5016416;28;45356;-94
2022/06/06 07:44:43;;;;;;;;;0.00;0.00;;;;;19.57;57.89;101472.03;5017093;28;45628;-94
2022/06/06 07:47:29;;;;;;;;;1.33;0.67;;;;;19.61;58.68;101468.13;5010232;28;47344;-96
2022/06/06 07:50:01;;;;;;;;;0.00;0.00;;;;;19.67;57.29;101484.91;5013836;28;45527;-95
2022/06/06 07:52:26;;;;;;;;;0.33;0.00;;;;;19.68;57.41;101471.28;5018632;28;45438;-94
2022/06/06 07:55:22;;;;;;;;;1.00;1.00;;;;;19.69;56.73;101475.75;5017816;28;45458;-94
2022/06/06 07:58:08;;;;;;;;;4.00;1.00;;;;;19.72;56.70;101471.97;5011240;28;47488;-96
2022/06/06 08:00:34;;;;;;;;;2.00;0.00;;;;;19.78;57.15;101474.22;5019588;28;45561;-95
2022/06/06 08:03:08;;;;;;;;;2.00;0.67;;;;;19.82;57.50;101475.72;5018721;28;45497;-94
2022/06/06 08:05:43;;;;;;;;;0.00;0.00;;;;;19.85;57.35;101467.38;5019377;28;45470;-95
2022/06/06 08:08:17;;;;;;;;;0.00;0.00;;;;;19.92;56.72;101465.13;5014427;28;46087;-95
2022/06/06 08:10:44;;;;;;;;;1.00;1.00;;;;;19.97;56.48;101468.34;5030400;28;45478;-96
2022/06/06 08:13:30;;;;;;;;;0.00;0.00;;;;;20.05;55.58;101470.53;5017819;28;45343;-94
2022/06/06 08:16:21;;;;;;;;;1.00;1.00;;;;;20.06;55.56;101464.13;5018365;28;45419;-95
2022/06/06 08:19:08;;;;;;;;;1.33;0.00;;;;;20.11;55.41;101475.47;5027039;28;45632;-94
2022/06/06 08:21:33;;;;;;;;;0.33;0.33;;;;;20.15;54.80;101464.31;5018009;28;45446;-93
2022/06/06 08:24:03;;;;;;;;;0.00;0.00;;;;;20.03;54.98;101443.56;5013842;28;45435;-92
2022/06/06 08:26:30;;;;;;;;;0.67;0.00;;;;;20.20;54.21;101456.72;5017660;28;45591;-93
2022/06/06 08:28:55;;;;;;;;;0.00;0.00;;;;;20.37;55.29;101457.31;5028386;28;46098;-92
2022/06/06 08:31:21;;;;;;;;;0.00;0.00;;;;;20.59;54.65;101457.50;5021231;28;45580;-91
2022/06/06 08:33:47;;;;;;;;;0.00;0.00;;;;;20.89;52.84;101456.19;5018387;28;45205;-92
2022/06/06 08:36:48;;;;;;;;;0.00;0.00;;;;;21.37;51.99;101447.09;5015916;28;45428;-92
2022/06/06 08:39:16;;;;;;;;;0.00;0.00;;;;;21.60;51.19;101439.91;5035712;28;47250;-86
2022/06/06 08:41:50;;;;;;;;;0.00;0.00;;;;;22.01;50.73;101443.84;5007780;28;45307;-85
2022/06/06 08:44:31;;;;;;;;;0.00;0.00;;;;;22.43;48.47;101444.06;5006980;28;45551;-90
2022/06/06 08:47:05;;;;;;;;;0.00;0.00;;;;;22.76;48.47;101446.72;5013074;28;45494;-87
2022/06/06 08:52:56;;;;;;;;;0.00;0.00;;;;;23.42;46.89;101447.53;5024327;28;45392;-87
2022/06/06 08:55:27;;;;;;;;;0.00;0.00;;;;;23.61;44.75;101439.47;5015058;28;45454;-87
2022/06/06 08:58:10;;;;;;;;;0.50;0.00;;;;;23.75;44.70;101436.44;5014093;28;45410;-94
2022/06/06 09:00:48;;;;;;;;;1.00;0.00;;;;;24.16;43.82;101426.44;5029752;28;46326;-91
2022/06/06 09:03:28;;;;;;;;;0.00;0.00;;;;;24.67;43.85;101429.97;5005769;28;45414;-89
2022/06/06 09:06:30;;;;;;;;;2.00;0.00;;;;;24.78;42.69;101394.41;5009707;28;45558;-89
2022/06/06 09:09:16;;;;;;;;;1.00;1.00;;;;;25.40;43.40;101435.88;5014026;28;45583;-93
2022/06/06 09:12:01;;;;;;;;;0.00;0.00;;;;;26.02;41.83;101435.41;5007098;28;46468;-92
2022/06/06 09:14:51;;;;;;;;;0.00;0.00;;;;;26.60;40.65;101434.19;5015037;28;45447;-90
2022/06/06 09:17:44;;;;;;;;;1.00;1.00;;;;;27.05;38.86;101436.88;5012530;28;45396;-89
2022/06/06 09:20:47;;;;;;;;;1.00;1.00;;;;;27.26;38.44;101436.56;5009143;28;45573;-93
2022/06/06 09:23:43;;;;;;;;;0.25;0.25;;;;;27.25;37.33;101437.56;5010776;28;47173;-85
2022/06/06 09:26:30;;;;;;;;;0.00;0.00;;;;;27.25;37.17;101434.81;5012150;28;45530;-84
2022/06/06 09:29:26;;;;;;;;;0.00;0.00;;;;;27.54;37.04;101431.78;5015615;28;45392;-90
2022/06/06 09:32:30;;;;;;;;;0.00;0.00;;;;;27.96;36.55;101424.69;5007641;28;45439;-89
2022/06/06 09:35:26;;;;;;;;;0.75;0.75;;;;;28.30;36.07;101432.00;5006811;28;47329;-92
2022/06/06 09:38:00;;;;;;;;;0.50;0.50;;;;;28.75;34.65;101419.78;5013285;28;45449;-91
2022/06/06 09:41:05;;;;;;;;;0.00;0.00;;;;;29.04;33.57;101417.41;5013490;28;45613;-90
2022/06/06 09:44:02;;;;;;;;;0.00;0.00;;;;;29.64;33.90;101418.91;4974465;28;45392;-89
2022/06/06 09:46:36;;;;;;;;;0.00;0.00;;;;;30.14;32.55;101411.34;4973178;28;46411;-90
2022/06/06 09:49:39;;;;;;;;;0.00;0.00;;;;;30.66;31.82;101416.22;4970284;28;45548;-87
2022/06/06 09:52:26;;;;;;;;;0.00;0.00;;;;;31.19;30.71;101413.59;4969361;28;45512;-87
2022/06/06 10:01:19;;;;;;;;;0.00;0.00;;;;;32.39;27.63;101418.09;4972430;28;45439;-83
2022/06/06 10:04:03;;;;;;;;;0.00;0.00;;;;;32.25;27.13;101408.81;4974163;28;46772;-84
2022/06/06 10:06:52;;;;;;;;;0.00;0.00;;;;;31.30;27.87;101415.03;4970812;28;45374;-84
2022/06/06 10:09:46;;;;;;;;;1.00;0.00;;;;;31.63;27.08;101403.69;4971495;28;46324;-94
2022/06/06 10:12:20;;;;;;;;;0.00;0.00;;;;;32.00;26.96;101408.25;4971735;28;45411;-94
2022/06/06 10:15:42;;;;;;;;;0.00;0.00;;;;;31.95;27.61;101411.59;4973149;28;45591;-94
2022/06/06 10:18:39;;;;;;;;;0.00;0.00;;;;;31.29;28.18;101416.94;4900630;28;45953;-94
2022/06/06 10:21:17;;;;;;;;;0.00;0.00;;;;;30.58;27.80;101416.28;4931830;28;47264;-94
2022/06/06 10:24:01;;;;;;;;;0.50;0.00;;;;;30.02;28.33;101421.03;4955282;28;45464;-91
2022/06/06 10:26:51;;;;;;;;;2.50;0.50;;;;;29.46;29.50;101419.09;4954422;28;45344;-93
2022/06/06 10:30:11;;;;;;;;;0.75;0.50;;;;;28.81;30.02;101425.47;4946096;28;45576;-92
2022/06/06 10:32:49;;;;;;;;;1.00;1.00;;;;;28.53;30.53;101430.38;4954234;28;46190;-92
2022/06/06 10:35:32;;;;;;;;;0.00;0.00;;;;;28.24;30.98;101433.53;4952163;28;45527;-92
2022/06/06 10:37:58;;;;;;;;;0.00;0.00;;;;;27.95;31.47;101433.91;4955052;28;45433;-92
2022/06/06 10:40:47;;;;;;;;;0.00;0.00;;;;;27.80;32.25;101398.03;4959595;28;45575;-92
2022/06/06 10:43:30;;;;;;;;;0.00;0.00;;;;;28.12;32.73;101437.59;4939807;28;47079;-90
2022/06/06 10:46:10;;;;;;;;;0.00;0.00;;;;;28.42;32.54;101412.34;4955333;28;45480;-91
2022/06/06 10:49:09;;;;;;;;;1.00;0.00;;;;;28.83;31.46;101417.06;4977768;28;45298;-90
2022/06/06 10:51:59;;;;;;;;;1.00;1.00;;;;;28.78;30.93;101423.06;5027530;28;45443;-92
2022/06/06 10:54:43;;;;;;;;;0.00;0.00;;;;;28.71;30.42;101419.28;5014692;28;47331;-91
2022/06/06 10:57:39;;;;;;;;;1.00;0.00;;;;;28.87;30.90;101423.06;5020309;28;45469;-92
2022/06/06 11:00:29;;;;;;;;;0.00;0.00;;;;;29.09;30.14;101414.19;5013186;28;45645;-92
2022/06/06 11:03:37;;;;;;;;;3.75;2.00;;;;;29.06;30.41;101378.81;5019775;28;45419;-92
2022/06/06 11:06:23;;;;;;;;;0.00;0.00;;;;;29.43;29.87;101403.00;5024553;28;46181;-93
2022/06/06 11:09:07;;;;;;;;;1.00;1.00;;;;;29.44;30.36;101404.69;5021844;28;45463;-94
2022/06/06 11:11:55;;;;;;;;;1.00;1.00;;;;;29.39;30.16;101382.38;5021620;28;45480;-92
2022/06/06 11:14:26;;;;;;;;;0.00;0.00;;;;;29.39;30.16;101382.38;5025016;28;45402;-92
2022/06/06 11:17:12;;;;;;;;;0.00;0.00;;;;;29.69;31.04;101401.94;5020207;28;46401;-92
2022/06/06 11:20:12;;;;;;;;;0.50;0.00;;;;;29.67;29.69;101407.59;5019202;28;45499;-92
2022/06/06 11:22:55;;;;;;;;;0.00;0.00;;;;;29.41;29.48;101406.94;5011790;28;45444;-92
2022/06/06 11:25:22;;;;;;;;;0.00;0.00;;;;;28.74;29.39;101357.72;5018421;28;45435;-91
2022/06/06 11:28:24;;;;;;;;;1.00;1.00;;;;;28.55;29.89;101395.41;5017509;28;47437;-89
2022/06/06 11:31:14;;;;;;;;;1.00;1.00;;;;;28.13;30.30;101411.91;5015420;28;45412;-92
2022/06/06 11:34:01;;;;;;;;;1.00;1.00;;;;;27.87;31.09;101399.13;5016920;28;45610;-91
2022/06/06 11:36:45;;;;;;;;;2.00;1.00;;;;;27.68;31.01;101408.41;5016841;28;45360;-91
2022/06/06 11:39:29;;;;;;;;;5.00;5.00;;;;;27.49;31.64;101406.78;5013113;28;46304;-90
2022/06/06 11:42:34;;;;;;;;;2.50;2.50;;;;;27.36;32.41;101411.81;5012245;28;45625;-91
2022/06/06 11:45:53;;;;;;;;;0.00;0.00;;;;;27.08;32.53;101411.06;5014869;28;45346;-91
2022/06/06 11:48:46;;;;;;;;;1.00;1.00;;;;;26.60;32.67;101369.44;4979854;28;45684;-94
2022/06/06 11:51:46;;;;;;;;;4.00;4.00;;;;;26.75;32.65;101394.38;4984306;28;46630;-95
2022/06/06 11:54:52;;;;;;;;;9.67;8.33;;;;;26.76;32.99;101414.38;4989132;28;46364;-95
2022/06/06 11:57:23;;;;;;;;;7.67;7.67;;;;;26.62;33.34;101413.91;4969546;28;45664;-94
2022/06/06 12:00:43;;;;;;;;;2.00;0.25;;;;;26.60;33.01;101401.38;4969584;28;45434;-94
2022/06/06 12:03:29;;;;;;;;;1.00;1.00;;;;;26.62;33.47;101404.81;4922220;28;46598;-95
2022/06/06 12:06:13;;;;;;;;;1.00;0.25;;;;;26.61;32.71;101397.66;4904694;28;45471;-95
2022/06/06 12:08:55;;;;;;;;;0.00;0.00;;;;;26.57;31.94;101397.09;4918257;28;45517;-93
2022/06/06 12:11:29;;;;;;;;;0.00;0.00;;;;;26.41;32.46;101402.34;4919028;28;45508;-92
2022/06/06 12:14:17;;;;;;;;;0.00;0.00;;;;;26.27;32.87;101393.69;4918249;28;46674;-92
2022/06/06 12:17:11;;;;;;;;;0.50;0.50;;;;;26.25;32.70;101387.50;4912834;28;45551;-93
2022/06/06 12:20:02;;;;;;;;;0.00;0.00;;;;;26.25;33.01;101390.25;4919711;28;45482;-93
2022/06/06 12:22:37;;;;;;;;;0.00;0.00;;;;;26.23;33.02;101392.28;4904824;28;45483;-93
2022/06/06 12:25:32;;;;;;;;;1.00;0.00;;;;;26.29;33.09;101388.06;4908387;28;46191;-94
2022/06/06 12:28:25;;;;;;;;;2.00;1.00;;;;;26.31;33.11;101389.63;4912586;28;45626;-94
2022/06/06 12:30:56;;;;;;;;;2.25;1.50;;;;;26.38;33.31;101383.53;4915100;28;45518;-94
2022/06/06 12:33:33;;;;;;;;;0.00;0.00;;;;;26.39;32.92;101377.94;4934090;28;45503;-90
2022/06/06 12:36:06;;;;;;;;;1.00;1.00;;;;;26.26;33.05;101350.97;4969624;28;45608;-89
2022/06/06 12:38:48;;;;;;;;;0.00;0.00;;;;;26.36;32.69;101377.38;4967118;28;45441;-90
2022/06/06 12:41:18;;;;;;;;;1.00;1.00;;;;;26.23;33.12;101348.53;4974054;28;45506;-88
2022/06/06 12:44:01;;;;;;;;;0.00;0.00;;;;;26.03;32.90;101316.91;4975165;28;46260;-88
2022/06/06 12:46:56;;;;;;;;;0.00;0.00;;;;;26.33;32.45;101356.66;4971090;28;46550;-93
2022/06/06 12:49:44;;;;;;;;;0.00;0.00;;;;;26.47;32.52;101366.22;4973337;28;45696;-86
2022/06/06 12:52:32;;;;;;;;;2.25;1.00;;;;;26.47;31.84;101372.53;4972723;28;45575;-91